createdAt,value
2023-03-03T00:01:49.152Z,98.67
2023-03-03T00:04:17.327Z,99.77
2023-03-03T00:06:46.250Z,100.00
2023-03-03T00:09:14.407Z,100.00
2023-03-03T00:11:43.916Z,100.00
2023-03-03T00:14:23.396Z,100.00
2023-03-03T00:16:51.551Z,99.50
2023-03-03T00:19:21.786Z,98.47
2023-03-03T00:21:51.725Z,100.00
2023-03-03T00:24:23.015Z,100.00
2023-03-03T00:26:55.614Z,100.00
2023-03-03T00:29:32.679Z,100.00
2023-03-03T00:32:18.373Z,100.00
2023-03-03T00:34:47.270Z,100.00
2023-03-03T00:37:27.010Z,100.00
2023-03-03T00:39:55.707Z,100.00
2023-03-03T00:42:27.487Z,100.00
2023-03-03T00:44:58.746Z,100.00
2023-03-03T00:47:31.802Z,100.00
2023-03-03T00:50:35.958Z,100.00
2023-03-03T00:53:07.554Z,100.00
2023-03-03T00:55:37.169Z,100.00
2023-03-03T00:58:06.904Z,100.00
2023-03-03T01:00:35.735Z,100.00
2023-03-03T01:03:05.806Z,100.00
2023-03-03T01:05:34.089Z,100.00
2023-03-03T01:08:03.192Z,100.00
2023-03-03T01:10:33.799Z,100.00
2023-03-03T01:13:02.157Z,100.00
2023-03-03T01:15:31.825Z,100.00
2023-03-03T01:18:00.022Z,100.00
2023-03-03T01:20:28.165Z,100.00
2023-03-03T01:22:56.323Z,100.00
2023-03-03T01:25:24.486Z,100.00
2023-03-03T01:27:52.643Z,100.00
2023-03-03T01:30:20.957Z,100.00
2023-03-03T01:32:50.493Z,100.00
2023-03-03T01:35:19.259Z,100.00
2023-03-03T01:37:47.462Z,100.00
2023-03-03T01:40:19.692Z,100.00
2023-03-03T01:42:47.832Z,100.00
2023-03-03T01:45:19.996Z,100.00
2023-03-03T01:47:58.087Z,100.00
2023-03-03T01:50:37.202Z,100.00
2023-03-03T01:53:07.940Z,100.00
2023-03-03T01:55:38.547Z,100.00
2023-03-03T01:58:12.353Z,100.00
2023-03-03T02:00:43.709Z,100.00
2023-03-03T02:03:13.485Z,100.00
2023-03-03T02:05:43.254Z,100.00
2023-03-03T02:08:16.925Z,100.00
2023-03-03T02:10:47.352Z,100.00
2023-03-03T02:13:15.651Z,100.00
2023-03-03T02:15:43.699Z,100.00
2023-03-03T02:18:16.907Z,100.00
2023-03-03T02:20:55.345Z,100.00
2023-03-03T02:23:28.428Z,100.00
2023-03-03T02:26:13.668Z,100.00
2023-03-03T02:28:43.270Z,100.00
2023-03-03T02:31:14.314Z,100.00
2023-03-03T02:33:43.288Z,100.00
2023-03-03T02:36:14.706Z,100.00
2023-03-03T02:38:47.607Z,100.00
2023-03-03T02:41:28.430Z,100.00
2023-03-03T02:44:01.209Z,100.00
2023-03-03T02:46:29.534Z,100.00
2023-03-03T02:48:57.677Z,100.00
2023-03-03T02:51:25.807Z,100.00
2023-03-03T02:53:53.991Z,100.00
2023-03-03T02:56:24.111Z,100.00
2023-03-03T02:58:52.566Z,100.00
2023-03-03T03:01:21.070Z,100.00
2023-03-03T03:03:49.313Z,100.00
2023-03-03T03:06:17.568Z,100.00
2023-03-03T03:08:45.731Z,100.00
2023-03-03T03:11:13.837Z,100.00
2023-03-03T03:13:43.376Z,100.00
2023-03-03T03:16:11.539Z,100.00
2023-03-03T03:18:39.702Z,100.00
2023-03-03T03:21:09.864Z,100.00
2023-03-03T03:23:38.488Z,100.00
2023-03-03T03:26:07.380Z,100.00
2023-03-03T03:28:36.154Z,100.00
2023-03-03T03:31:07.033Z,100.00
2023-03-03T03:33:35.276Z,100.00
2023-03-03T03:36:04.745Z,100.00
2023-03-03T03:38:33.373Z,100.00
2023-03-03T03:41:01.846Z,100.00
2023-03-03T03:43:30.619Z,100.00
2023-03-03T03:45:59.171Z,100.00
2023-03-03T03:48:28.823Z,100.00
2023-03-03T03:50:57.024Z,100.00
2023-03-03T03:53:25.241Z,100.00
2023-03-03T03:55:53.431Z,100.00
2023-03-03T03:58:21.795Z,100.00
2023-03-03T04:00:50.024Z,100.00
2023-03-03T04:03:18.471Z,100.00
2023-03-03T04:05:48.323Z,100.00
2023-03-03T04:08:16.555Z,100.00
2023-03-03T04:10:44.663Z,100.00
2023-03-03T04:13:12.838Z,100.00
2023-03-03T04:15:41.122Z,100.00
2023-03-03T04:18:09.347Z,100.00
2023-03-03T04:20:37.527Z,100.00
2023-03-03T04:23:07.173Z,100.00
2023-03-03T04:25:35.392Z,100.00
2023-03-03T04:28:05.515Z,100.00
2023-03-03T04:30:33.866Z,100.00
2023-03-03T04:33:02.085Z,100.00
2023-03-03T04:35:30.503Z,100.00
2023-03-03T04:37:58.791Z,100.00
2023-03-03T04:40:28.496Z,100.00
2023-03-03T04:42:56.831Z,100.00
2023-03-03T04:45:25.005Z,100.00
2023-03-03T04:47:53.284Z,100.00
2023-03-03T04:50:21.558Z,100.00
2023-03-03T04:52:49.758Z,100.00
2023-03-03T04:55:18.175Z,100.00
2023-03-03T04:57:47.824Z,100.00
2023-03-03T05:00:16.673Z,100.00
2023-03-03T05:02:44.896Z,100.00
2023-03-03T05:05:13.835Z,100.00
2023-03-03T05:07:42.481Z,100.00
2023-03-03T05:10:11.874Z,100.00
2023-03-03T05:12:40.188Z,100.00
2023-03-03T05:15:10.833Z,100.00
2023-03-03T05:17:39.091Z,100.00
2023-03-03T05:20:08.692Z,100.00
2023-03-03T05:22:36.796Z,100.00
2023-03-03T05:25:05.435Z,100.00
2023-03-03T05:27:33.612Z,100.00
2023-03-03T05:30:01.680Z,100.00
2023-03-03T05:32:31.252Z,100.00
2023-03-03T05:34:59.403Z,100.00
2023-03-03T05:37:27.610Z,100.00
2023-03-03T05:39:55.742Z,100.00
2023-03-03T05:42:23.949Z,100.00
2023-03-03T05:44:52.332Z,100.00
2023-03-03T05:47:20.499Z,100.00
2023-03-03T05:49:50.037Z,100.00
2023-03-03T05:52:18.208Z,100.00
2023-03-03T05:54:46.472Z,100.00
2023-03-03T05:57:14.590Z,100.00
2023-03-03T05:59:42.814Z,100.00
2023-03-03T06:02:11.012Z,100.00
2023-03-03T06:04:40.056Z,100.00
2023-03-03T06:07:09.573Z,100.00
2023-03-03T06:09:38.233Z,100.00
2023-03-03T06:12:07.165Z,100.00
2023-03-03T06:14:35.494Z,100.00
2023-03-03T06:17:03.699Z,100.00
2023-03-03T06:19:32.003Z,100.00
2023-03-03T06:22:00.877Z,100.00
2023-03-03T06:24:31.816Z,100.00
2023-03-03T06:27:00.748Z,100.00
2023-03-03T06:29:29.553Z,100.00
2023-03-03T06:31:57.948Z,100.00
2023-03-03T06:34:26.188Z,100.00
2023-03-03T06:36:54.565Z,100.00
2023-03-03T06:39:22.791Z,100.00
2023-03-03T06:41:52.467Z,100.00
2023-03-03T06:44:20.776Z,100.00
2023-03-03T06:46:49.057Z,100.00
2023-03-03T06:49:17.146Z,100.00
2023-03-03T06:51:46.626Z,100.00
2023-03-03T06:54:16.831Z,100.00
2023-03-03T06:56:46.733Z,100.00
2023-03-03T06:59:18.576Z,100.00
2023-03-03T07:01:48.727Z,100.00
2023-03-03T07:04:26.351Z,100.00
2023-03-03T07:06:54.573Z,100.00
2023-03-03T07:09:25.570Z,100.00
2023-03-03T07:11:54.256Z,100.00
2023-03-03T07:14:23.969Z,100.00
2023-03-03T07:16:59.413Z,100.00
2023-03-03T07:19:34.465Z,100.00
2023-03-03T07:22:13.505Z,100.00
2023-03-03T07:24:42.117Z,100.00
2023-03-03T07:27:15.476Z,100.00
2023-03-03T07:29:45.218Z,100.00
2023-03-03T07:32:27.156Z,100.00
2023-03-03T07:34:57.114Z,100.00
2023-03-03T07:37:32.238Z,100.00
2023-03-03T07:40:02.077Z,100.00
2023-03-03T07:42:37.639Z,100.00
2023-03-03T07:45:26.281Z,100.00
2023-03-03T07:48:02.070Z,100.00
2023-03-03T07:50:30.319Z,100.00
2023-03-03T07:53:00.749Z,100.00
2023-03-03T07:55:35.496Z,100.00
2023-03-03T07:58:22.341Z,100.00
2023-03-03T08:01:29.481Z,100.00
2023-03-03T08:03:59.407Z,100.00
2023-03-03T08:06:43.791Z,100.00
2023-03-03T08:09:40.681Z,100.00
2023-03-03T08:12:30.151Z,100.00
2023-03-03T08:15:12.697Z,100.00
2023-03-03T08:17:43.710Z,100.00
2023-03-03T08:20:47.526Z,100.00
2023-03-03T08:23:17.797Z,100.00
2023-03-03T08:25:46.597Z,100.00
2023-03-03T08:28:15.541Z,100.00
2023-03-03T08:30:45.413Z,100.00
2023-03-03T08:33:14.792Z,100.00
2023-03-03T08:35:43.698Z,100.00
2023-03-03T08:38:14.958Z,100.00
2023-03-03T08:40:43.273Z,100.00
2023-03-03T08:43:13.375Z,100.00
2023-03-03T08:45:41.622Z,100.00
2023-03-03T08:48:09.874Z,100.00
2023-03-03T08:50:38.666Z,100.00
2023-03-03T08:53:07.660Z,100.00
2023-03-03T08:55:37.343Z,100.00
2023-03-03T08:58:05.734Z,100.00
2023-03-03T09:00:34.583Z,100.00
2023-03-03T09:03:03.208Z,100.00
2023-03-03T09:05:31.859Z,100.00
2023-03-03T09:08:00.882Z,100.00
2023-03-03T09:10:32.013Z,100.00
2023-03-03T09:13:06.047Z,100.00
2023-03-03T09:15:36.272Z,100.00
2023-03-03T09:18:16.251Z,100.00
2023-03-03T09:20:45.746Z,100.00
2023-03-03T09:23:31.672Z,100.00
2023-03-03T09:26:12.580Z,100.00
2023-03-03T09:28:42.177Z,100.00
2023-03-03T09:31:24.802Z,100.00
2023-03-03T09:33:55.375Z,100.00
2023-03-03T09:36:27.332Z,100.00
2023-03-03T09:38:57.076Z,100.00
2023-03-03T09:41:51.888Z,100.00
2023-03-03T09:44:57.322Z,100.00
2023-03-03T09:47:40.711Z,100.00
2023-03-03T09:50:21.954Z,100.00
2023-03-03T09:52:57.334Z,100.00
2023-03-03T09:55:38.071Z,100.00
2023-03-03T09:58:35.519Z,74.94
2023-03-03T10:01:24.345Z,79.57
2023-03-03T10:04:08.366Z,75.32
2023-03-03T10:06:44.156Z,75.61
2023-03-03T10:09:36.851Z,75.33
2023-03-03T10:12:12.370Z,76.54
2023-03-03T10:14:55.230Z,75.28
2023-03-03T10:17:34.412Z,73.89
2023-03-03T10:20:16.753Z,73.89
2023-03-03T10:22:53.881Z,74.23
2023-03-03T10:25:44.615Z,74.90
2023-03-03T10:28:36.546Z,73.36
2023-03-03T10:31:18.600Z,71.72
2023-03-03T10:33:56.415Z,71.31
2023-03-03T10:36:41.327Z,71.41
2023-03-03T10:39:39.905Z,73.92
2023-03-03T10:42:21.215Z,69.66
2023-03-03T10:45:03.507Z,67.98
2023-03-03T10:47:44.652Z,66.54
2023-03-03T10:50:22.499Z,65.36
2023-03-03T10:52:55.670Z,65.76
2023-03-03T10:55:43.887Z,66.24
2023-03-03T10:58:33.822Z,66.14
2023-03-03T11:01:11.865Z,67.03
2023-03-03T11:04:10.246Z,68.07
2023-03-03T11:06:48.294Z,68.64
2023-03-03T11:09:37.886Z,68.63
2023-03-03T11:12:15.965Z,71.04
2023-03-03T11:14:49.236Z,70.80
2023-03-03T11:17:25.343Z,67.66
2023-03-03T11:20:04.973Z,67.41
2023-03-03T11:22:42.147Z,68.39
2023-03-03T11:25:25.333Z,68.45
2023-03-03T11:28:06.680Z,69.14
2023-03-03T11:30:59.980Z,69.22
2023-03-03T11:33:35.465Z,69.73
2023-03-03T11:36:12.351Z,70.19
2023-03-03T11:38:53.429Z,71.04
2023-03-03T11:41:31.545Z,71.26
2023-03-03T11:44:07.201Z,73.10
2023-03-03T11:46:42.145Z,73.74
2023-03-03T11:49:17.340Z,74.38
2023-03-03T11:52:03.021Z,74.24
2023-03-03T11:54:48.412Z,74.81
2023-03-03T11:57:22.825Z,72.97
2023-03-03T12:00:01.013Z,72.67
2023-03-03T12:02:44.192Z,73.26
2023-03-03T12:05:21.182Z,72.82
2023-03-03T12:07:58.907Z,72.49
2023-03-03T12:10:38.732Z,72.27
2023-03-03T12:13:13.231Z,73.77
2023-03-03T12:15:50.683Z,73.39
2023-03-03T12:18:51.469Z,72.51
2023-03-03T12:21:35.803Z,72.08
2023-03-03T12:24:23.667Z,74.70
2023-03-03T12:26:59.790Z,73.17
2023-03-03T12:29:33.111Z,72.72
2023-03-03T12:32:15.963Z,73.00
2023-03-03T12:34:54.207Z,72.67
2023-03-03T12:37:42.082Z,71.69
2023-03-03T12:40:15.763Z,69.24
2023-03-03T12:42:58.846Z,69.89
2023-03-03T12:45:54.072Z,69.46
2023-03-03T12:48:26.813Z,68.64
2023-03-03T12:51:03.521Z,67.49
2023-03-03T12:53:49.871Z,67.53
2023-03-03T12:56:24.788Z,66.75
2023-03-03T12:59:02.280Z,64.90
2023-03-03T13:01:45.308Z,63.61
2023-03-03T13:04:22.670Z,64.13
2023-03-03T13:06:56.932Z,61.85
2023-03-03T13:09:34.646Z,60.31
2023-03-03T13:12:20.492Z,60.26
2023-03-03T13:14:55.210Z,58.36
2023-03-03T13:17:30.082Z,60.19
2023-03-03T13:20:01.229Z,61.75
2023-03-03T13:22:38.961Z,61.55
2023-03-03T13:25:23.546Z,62.23
2023-03-03T13:27:57.774Z,65.48
2023-03-03T13:30:31.941Z,65.58
2023-03-03T13:33:06.793Z,66.55
2023-03-03T13:35:43.722Z,66.20
2023-03-03T13:38:15.064Z,64.51
2023-03-03T13:40:47.300Z,65.91
2023-03-03T13:43:20.300Z,66.23
2023-03-03T13:46:05.983Z,66.72
2023-03-03T13:48:53.859Z,64.91
2023-03-03T13:51:33.769Z,64.99
2023-03-03T13:54:14.534Z,64.30
2023-03-03T13:57:07.480Z,63.09
2023-03-03T13:59:45.484Z,63.48
2023-03-03T14:02:35.961Z,62.60
2023-03-03T14:05:13.011Z,62.85
2023-03-03T14:07:46.648Z,63.86
2023-03-03T14:10:22.016Z,64.10
2023-03-03T14:12:57.935Z,64.22
2023-03-03T14:15:30.949Z,64.93
2023-03-03T14:18:23.105Z,64.23
2023-03-03T14:20:53.786Z,64.95
2023-03-03T14:23:28.854Z,65.15
2023-03-03T14:26:01.620Z,65.02
2023-03-03T14:28:31.455Z,66.67
2023-03-03T14:31:10.820Z,66.19
2023-03-03T14:33:40.927Z,68.23
2023-03-03T14:36:16.127Z,65.92
2023-03-03T14:38:51.804Z,66.31
2023-03-03T14:41:22.592Z,66.47
2023-03-03T14:44:02.479Z,66.62
2023-03-03T14:46:40.410Z,67.79
2023-03-03T14:49:16.999Z,67.96
2023-03-03T14:51:48.479Z,69.03
2023-03-03T14:54:24.143Z,71.29
2023-03-03T14:57:08.463Z,70.01
2023-03-03T14:59:36.678Z,70.05
2023-03-03T15:02:33.247Z,70.39
2023-03-03T15:05:19.938Z,70.49
2023-03-03T15:07:50.397Z,68.65
2023-03-03T15:10:33.521Z,67.46
2023-03-03T15:13:30.408Z,64.60
2023-03-03T15:16:12.299Z,63.90
2023-03-03T15:19:23.958Z,65.06
2023-03-03T15:22:02.822Z,64.50
2023-03-03T15:24:41.622Z,64.67
2023-03-03T15:27:15.252Z,65.13
2023-03-03T15:29:54.415Z,65.60
2023-03-03T15:32:30.830Z,66.02
2023-03-03T15:35:07.840Z,67.14
2023-03-03T15:37:47.227Z,67.35
2023-03-03T15:40:25.892Z,67.12
2023-03-03T15:43:03.325Z,66.87
2023-03-03T15:45:35.634Z,67.09
2023-03-03T15:48:29.998Z,68.37
2023-03-03T15:51:07.973Z,68.04
2023-03-03T15:54:00.008Z,68.54
2023-03-03T15:56:36.174Z,68.91
2023-03-03T15:59:30.881Z,71.04
2023-03-03T16:02:13.391Z,72.32
2023-03-03T16:04:49.664Z,72.26
2023-03-03T16:07:32.148Z,73.61
2023-03-03T16:10:12.324Z,74.33
2023-03-03T16:12:53.614Z,75.63
2023-03-03T16:15:32.987Z,77.18
2023-03-03T16:18:09.769Z,77.70
2023-03-03T16:20:44.978Z,77.53
2023-03-03T16:23:22.725Z,77.32
2023-03-03T16:26:03.887Z,77.36
2023-03-03T16:28:44.396Z,77.60
2023-03-03T16:31:18.619Z,77.92
2023-03-03T16:33:56.545Z,78.62
2023-03-03T16:36:39.092Z,79.26
2023-03-03T16:39:14.395Z,81.04
2023-03-03T16:41:52.528Z,81.69
2023-03-03T16:44:34.790Z,82.80
2023-03-03T16:47:15.538Z,83.80
2023-03-03T16:49:55.503Z,84.35
2023-03-03T16:52:35.091Z,86.01
2023-03-03T16:55:09.768Z,87.55
2023-03-03T16:57:52.569Z,88.13
2023-03-03T17:00:22.992Z,88.32
2023-03-03T17:03:18.957Z,89.08
2023-03-03T17:05:53.198Z,88.94
2023-03-03T17:08:43.053Z,89.95
2023-03-03T17:11:18.367Z,90.43
2023-03-03T17:14:11.503Z,91.09
2023-03-03T17:16:52.643Z,90.56
2023-03-03T17:19:41.764Z,89.23
2023-03-03T17:22:19.405Z,90.40
2023-03-03T17:25:02.028Z,91.70
2023-03-03T17:27:41.858Z,92.82
2023-03-03T17:30:19.276Z,93.14
2023-03-03T17:33:12.614Z,92.68
2023-03-03T17:36:00.484Z,92.54
2023-03-03T17:38:39.716Z,92.45
2023-03-03T17:41:12.461Z,92.20
2023-03-03T17:43:47.246Z,93.04
2023-03-03T17:46:32.233Z,92.57
2023-03-03T17:49:27.019Z,92.71
2023-03-03T17:52:21.379Z,93.69
2023-03-03T17:55:23.402Z,94.20
2023-03-03T17:58:17.330Z,95.63
2023-03-03T18:00:55.419Z,95.94
2023-03-03T18:03:52.682Z,96.99
2023-03-03T18:07:05.159Z,97.28
2023-03-03T18:09:57.939Z,96.80
2023-03-03T18:12:38.954Z,97.46
2023-03-03T18:15:21.647Z,96.92
2023-03-03T18:18:03.442Z,96.83
2023-03-03T18:21:00.728Z,97.54
2023-03-03T18:23:35.489Z,97.77
2023-03-03T18:26:05.805Z,98.37
2023-03-03T18:29:07.358Z,98.51
2023-03-03T18:31:48.480Z,98.81
2023-03-03T18:34:35.044Z,99.53
2023-03-03T18:37:10.757Z,99.93
2023-03-03T18:39:46.096Z,100.00
2023-03-03T18:42:39.938Z,100.00
2023-03-03T18:45:54.084Z,100.00
2023-03-03T18:48:53.386Z,100.00
2023-03-03T18:51:53.623Z,100.00
2023-03-03T18:54:33.454Z,100.00
2023-03-03T18:57:20.787Z,100.00
2023-03-03T19:00:09.763Z,100.00
2023-03-03T19:02:46.426Z,100.00
2023-03-03T19:05:24.078Z,100.00
2023-03-03T19:07:58.118Z,100.00
2023-03-03T19:10:54.103Z,100.00
2023-03-03T19:13:48.387Z,100.00
2023-03-03T19:16:38.952Z,100.00
2023-03-03T19:19:14.109Z,100.00
2023-03-03T19:21:44.030Z,100.00
2023-03-03T19:24:42.575Z,100.00
2023-03-03T19:27:25.351Z,100.00
2023-03-03T19:30:22.805Z,100.00
2023-03-03T19:33:15.194Z,100.00
2023-03-03T19:36:02.750Z,100.00
2023-03-03T19:38:39.807Z,100.00
2023-03-03T19:41:27.967Z,100.00
2023-03-03T19:44:08.872Z,100.00
2023-03-03T19:46:56.503Z,100.00
2023-03-03T19:49:39.562Z,100.00
2023-03-03T19:52:14.148Z,100.00
2023-03-03T19:55:11.775Z,100.00
2023-03-03T19:57:51.649Z,100.00
2023-03-03T20:00:28.674Z,100.00
2023-03-03T20:03:20.758Z,100.00
2023-03-03T20:05:52.745Z,100.00
2023-03-03T20:08:27.268Z,100.00
2023-03-03T20:11:03.293Z,100.00
2023-03-03T20:13:48.489Z,100.00
2023-03-03T20:16:29.892Z,100.00
2023-03-03T20:19:26.406Z,100.00
2023-03-03T20:22:07.832Z,100.00
2023-03-03T20:25:05.371Z,100.00
2023-03-03T20:27:40.721Z,100.00
2023-03-03T20:30:25.295Z,100.00
2023-03-03T20:33:07.388Z,100.00
2023-03-03T20:35:40.685Z,100.00
2023-03-03T20:38:13.693Z,100.00
2023-03-03T20:40:45.338Z,100.00
2023-03-03T20:43:29.075Z,100.00
2023-03-03T20:46:07.882Z,100.00
2023-03-03T20:49:08.740Z,100.00
2023-03-03T20:51:44.820Z,100.00
2023-03-03T20:54:23.627Z,100.00
2023-03-03T20:56:57.836Z,100.00
2023-03-03T20:59:33.100Z,100.00
2023-03-03T21:02:10.419Z,100.00
2023-03-03T21:04:40.176Z,100.00
2023-03-03T21:07:08.382Z,100.00
2023-03-03T21:09:38.998Z,100.00
2023-03-03T21:12:13.247Z,100.00
2023-03-03T21:14:41.485Z,100.00
2023-03-03T21:17:28.123Z,100.00
2023-03-03T21:20:17.738Z,100.00
2023-03-03T21:22:45.961Z,100.00
2023-03-03T21:25:34.194Z,100.00
2023-03-03T21:28:19.691Z,100.00
2023-03-03T21:31:11.647Z,100.00
2023-03-03T21:33:41.547Z,100.00
2023-03-03T21:36:11.634Z,100.00
2023-03-03T21:38:40.228Z,100.00
2023-03-03T21:41:09.953Z,100.00
2023-03-03T21:43:41.056Z,100.00
2023-03-03T21:46:09.584Z,100.00
2023-03-03T21:48:41.854Z,100.00
2023-03-03T21:51:14.122Z,100.00
2023-03-03T21:53:44.177Z,100.00
2023-03-03T21:56:13.963Z,100.00
2023-03-03T21:58:42.530Z,100.00
2023-03-03T22:01:12.133Z,100.00
2023-03-03T22:03:40.751Z,100.00
2023-03-03T22:06:09.103Z,100.00
2023-03-03T22:08:38.736Z,100.00
2023-03-03T22:11:06.919Z,100.00
2023-03-03T22:13:35.120Z,100.00
2023-03-03T22:16:03.372Z,100.00
2023-03-03T22:18:31.536Z,100.00
2023-03-03T22:20:59.778Z,100.00
2023-03-03T22:23:27.951Z,100.00
2023-03-03T22:25:57.577Z,100.00
2023-03-03T22:28:25.971Z,100.00
2023-03-03T22:30:54.232Z,100.00
2023-03-03T22:33:22.642Z,100.00
2023-03-03T22:35:50.870Z,100.00
2023-03-03T22:38:19.101Z,100.00
2023-03-03T22:40:47.334Z,100.00
2023-03-03T22:43:16.974Z,100.00
2023-03-03T22:45:45.404Z,100.00
2023-03-03T22:48:14.114Z,100.00
2023-03-03T22:50:43.726Z,100.00
2023-03-03T22:53:11.847Z,100.00
2023-03-03T22:55:39.956Z,100.00
2023-03-03T22:58:09.617Z,100.00
2023-03-03T23:00:40.025Z,100.00
2023-03-03T23:03:08.555Z,100.00
2023-03-03T23:05:36.965Z,100.00
2023-03-03T23:08:05.519Z,100.00
2023-03-03T23:10:33.708Z,100.00
2023-03-03T23:13:01.828Z,100.00
2023-03-03T23:15:30.117Z,100.00
2023-03-03T23:17:59.677Z,100.00
2023-03-03T23:20:29.517Z,100.00
2023-03-03T23:22:58.525Z,100.00
2023-03-03T23:25:27.044Z,100.00
2023-03-03T23:27:55.939Z,100.00
2023-03-03T23:30:24.928Z,100.00
2023-03-03T23:32:53.230Z,100.00
2023-03-03T23:35:22.695Z,100.00
2023-03-03T23:37:50.837Z,100.00
2023-03-03T23:40:19.371Z,100.00
2023-03-03T23:42:47.518Z,100.00
2023-03-03T23:45:15.830Z,100.00
2023-03-03T23:47:44.169Z,100.00
2023-03-03T23:50:13.630Z,100.00
2023-03-03T23:52:43.257Z,100.00
2023-03-03T23:55:12.029Z,100.00
2023-03-03T23:57:40.122Z,100.00
